createdAt,value
2019-02-05T00:01:04.133Z,15.50
2019-02-05T00:03:37.656Z,16.13
2019-02-05T00:06:09.406Z,15.23
2019-02-05T00:08:41.951Z,17.17
2019-02-05T00:11:13.951Z,14.70
2019-02-05T00:13:45.566Z,17.10
2019-02-05T00:16:17.420Z,16.30
2019-02-05T00:18:51.622Z,14.80
2019-02-05T00:21:22.560Z,14.23
2019-02-05T00:23:54.388Z,15.40
2019-02-05T00:26:26.064Z,14.90
2019-02-05T00:28:58.958Z,14.17
2019-02-05T00:31:32.507Z,18.60
2019-02-05T00:34:04.426Z,11.90
2019-02-05T00:36:36.176Z,16.23
2019-02-05T00:39:11.238Z,14.73
2019-02-05T00:41:42.776Z,16.13
2019-02-05T00:44:16.283Z,19.10
2019-02-05T00:46:47.773Z,15.00
2019-02-05T00:49:19.236Z,15.87
2019-02-05T00:51:50.712Z,15.67
2019-02-05T00:54:23.303Z,14.37
2019-02-05T00:56:55.349Z,13.43
2019-02-05T00:59:26.810Z,15.27
2019-02-05T01:01:58.324Z,16.13
2019-02-05T01:04:29.832Z,16.83
2019-02-05T01:07:01.313Z,16.27
2019-02-05T01:09:33.076Z,14.77
2019-02-05T01:12:04.617Z,14.63
2019-02-05T01:14:36.166Z,16.73
2019-02-05T01:17:07.636Z,15.10
2019-02-05T01:19:39.098Z,15.17
2019-02-05T01:22:10.796Z,16.77
2019-02-05T01:24:42.264Z,13.90
2019-02-05T01:27:13.738Z,24.00
2019-02-05T01:29:45.257Z,24.67
2019-02-05T01:32:16.742Z,15.70
2019-02-05T01:34:48.240Z,19.23
2019-02-05T01:37:20.824Z,14.60
2019-02-05T01:39:52.293Z,17.27
2019-02-05T01:42:24.676Z,14.33
2019-02-05T01:44:56.217Z,19.03
2019-02-05T01:47:28.124Z,16.27
2019-02-05T01:49:59.636Z,19.40
2019-02-05T01:52:30.937Z,15.70
2019-02-05T01:55:02.399Z,19.23
2019-02-05T01:57:33.966Z,17.67
2019-02-05T02:00:12.083Z,19.53
2019-02-05T02:02:43.639Z,16.50
2019-02-05T02:05:15.495Z,20.53
2019-02-05T02:07:47.061Z,18.60
2019-02-05T02:10:25.100Z,16.37
2019-02-05T02:12:57.067Z,23.87
2019-02-05T02:15:28.795Z,21.00
2019-02-05T02:18:00.287Z,20.00
2019-02-05T02:20:31.725Z,20.30
2019-02-05T02:23:04.704Z,25.70
2019-02-05T02:25:36.167Z,20.73
2019-02-05T02:28:07.697Z,19.27
2019-02-05T02:30:40.503Z,18.33
2019-02-05T02:33:12.090Z,22.23
2019-02-05T02:35:43.568Z,17.87
2019-02-05T02:38:15.081Z,17.90
2019-02-05T02:40:46.711Z,20.43
2019-02-05T02:43:18.297Z,20.43
2019-02-05T02:45:49.822Z,16.60
2019-02-05T02:48:21.405Z,23.47
2019-02-05T02:50:52.861Z,19.37
2019-02-05T02:53:24.369Z,19.70
2019-02-05T02:55:55.912Z,18.77
2019-02-05T02:58:27.389Z,16.90
2019-02-05T03:00:58.878Z,21.50
2019-02-05T03:03:30.747Z,18.70
2019-02-05T03:06:03.665Z,19.13
2019-02-05T03:08:35.134Z,17.77
2019-02-05T03:11:06.971Z,21.40
2019-02-05T03:13:38.725Z,25.07
2019-02-05T03:16:10.189Z,19.90
2019-02-05T03:18:41.681Z,23.50
2019-02-05T03:21:13.218Z,21.40
2019-02-05T03:23:44.735Z,18.90
2019-02-05T03:26:16.185Z,21.00
2019-02-05T03:28:47.748Z,23.53
2019-02-05T03:31:19.231Z,22.20
2019-02-05T03:33:50.729Z,26.67
2019-02-05T03:36:22.302Z,23.80
2019-02-05T03:38:53.804Z,28.37
2019-02-05T03:41:25.281Z,23.07
2019-02-05T03:43:56.887Z,25.57
2019-02-05T03:46:28.441Z,25.10
2019-02-05T03:49:01.203Z,25.60
2019-02-05T03:52:32.586Z,24.07
2019-02-05T03:56:19.078Z,27.93
2019-02-05T03:59:25.727Z,24.33
2019-02-05T04:02:44.164Z,28.77
2019-02-05T04:06:30.373Z,24.67
2019-02-05T04:09:54.775Z,26.40
2019-02-05T04:13:13.282Z,25.13
2019-02-05T04:16:31.867Z,28.93
2019-02-05T04:22:38.345Z,29.00
2019-02-05T04:25:35.015Z,22.83
2019-02-05T04:28:54.959Z,21.70
2019-02-05T04:32:14.836Z,30.10
2019-02-05T04:35:49.441Z,22.77
2019-02-05T04:39:08.266Z,25.53
2019-02-05T04:42:38.572Z,27.83
2019-02-05T04:46:28.295Z,32.60
2019-02-05T04:50:05.694Z,24.10
2019-02-05T04:53:26.229Z,26.03
2019-02-05T04:56:12.069Z,24.27
2019-02-05T04:59:39.977Z,24.57
2019-02-05T05:03:03.410Z,28.27
2019-02-05T05:06:31.446Z,27.80
2019-02-05T05:09:50.452Z,27.30
2019-02-05T05:12:21.937Z,29.13
2019-02-05T05:15:12.959Z,25.10
2019-02-05T05:17:44.483Z,28.27
2019-02-05T05:20:15.921Z,26.43
2019-02-05T05:22:59.085Z,28.93
2019-02-05T05:25:31.956Z,28.83
2019-02-05T05:28:10.053Z,25.27
2019-02-05T05:30:37.425Z,26.90
2019-02-05T05:33:09.085Z,25.83
2019-02-05T05:35:44.506Z,27.17
2019-02-05T05:38:14.014Z,32.53
2019-02-05T05:40:45.474Z,28.77
2019-02-05T05:43:16.960Z,29.20
2019-02-05T05:45:48.407Z,26.10
2019-02-05T05:48:19.884Z,16.60
2019-02-05T05:50:51.346Z,28.70
2019-02-05T05:53:22.788Z,23.53
2019-02-05T05:55:54.327Z,24.70
2019-02-05T05:58:25.807Z,26.23
2019-02-05T06:00:57.545Z,33.73
2019-02-05T06:03:29.020Z,29.50
2019-02-05T06:06:00.481Z,27.00
2019-02-05T06:08:32.094Z,23.80
2019-02-05T06:11:03.559Z,27.40
2019-02-05T06:13:35.136Z,27.23
2019-02-05T06:16:06.572Z,39.63
2019-02-05T06:18:38.049Z,30.03
2019-02-05T06:21:09.480Z,29.27
2019-02-05T06:23:40.940Z,27.17
2019-02-05T06:26:12.626Z,24.60
2019-02-05T06:28:44.427Z,37.33
2019-02-05T06:31:16.192Z,28.47
2019-02-05T06:33:49.025Z,28.90
2019-02-05T06:36:20.726Z,30.30
2019-02-05T06:38:52.259Z,29.97
2019-02-05T06:41:24.102Z,29.80
2019-02-05T06:43:55.660Z,31.97
2019-02-05T06:46:27.168Z,33.67
2019-02-05T06:48:58.662Z,35.43
2019-02-05T06:51:33.960Z,29.77
2019-02-05T06:54:06.007Z,28.87
2019-02-05T06:56:38.526Z,33.90
2019-02-05T06:59:31.530Z,33.57
2019-02-05T07:02:03.088Z,31.93
2019-02-05T07:04:36.259Z,37.50
2019-02-05T07:07:07.895Z,32.13
2019-02-05T07:09:39.405Z,30.23
2019-02-05T07:12:11.163Z,33.40
2019-02-05T07:14:42.735Z,36.53
2019-02-05T07:17:14.476Z,36.00
2019-02-05T07:19:46.133Z,28.77
2019-02-05T07:22:17.741Z,32.10
2019-02-05T07:24:49.235Z,34.43
2019-02-05T07:27:20.983Z,35.73
2019-02-05T07:29:52.870Z,32.90
2019-02-05T07:32:24.341Z,28.27
2019-02-05T07:34:55.810Z,30.87
2019-02-05T07:37:27.465Z,35.40
2019-02-05T07:39:59.089Z,33.47
2019-02-05T07:42:31.186Z,33.93
2019-02-05T07:45:06.374Z,31.17
2019-02-05T07:47:41.706Z,34.90
2019-02-05T07:50:17.084Z,30.63
2019-02-05T07:52:48.568Z,32.20
2019-02-05T07:55:20.053Z,30.50
2019-02-05T07:57:52.172Z,31.03
2019-02-05T08:00:28.043Z,31.70
2019-02-05T08:03:00.256Z,29.50
2019-02-05T08:05:33.575Z,29.53
2019-02-05T08:08:06.635Z,31.27
2019-02-05T08:10:39.463Z,29.80
2019-02-05T08:13:11.445Z,26.50
2019-02-05T08:15:44.027Z,33.60
2019-02-05T08:18:16.991Z,32.07
2019-02-05T08:20:48.542Z,31.67
2019-02-05T08:23:20.123Z,34.00
2019-02-05T08:25:53.242Z,41.90
2019-02-05T08:28:26.076Z,35.10
2019-02-05T08:30:57.592Z,28.73
2019-02-05T08:33:29.186Z,33.57
2019-02-05T08:36:00.796Z,32.90
2019-02-05T08:38:33.572Z,28.97
2019-02-05T08:41:06.072Z,36.63
2019-02-05T08:43:37.726Z,31.83
2019-02-05T08:46:09.235Z,36.00
2019-02-05T08:48:41.140Z,35.87
2019-02-05T08:51:13.166Z,30.40
2019-02-05T08:53:50.285Z,34.90
2019-02-05T08:56:21.860Z,35.50
2019-02-05T08:58:53.495Z,33.57
2019-02-05T09:01:25.201Z,39.17
2019-02-05T09:03:59.581Z,36.40
2019-02-05T09:06:31.331Z,38.33
2019-02-05T09:09:13.095Z,39.60
2019-02-05T09:12:17.978Z,43.43
2019-02-05T09:14:47.621Z,33.80
2019-02-05T09:17:24.290Z,28.93
2019-02-05T09:19:55.411Z,33.50
2019-02-05T09:22:47.467Z,37.03
2019-02-05T09:25:27.272Z,38.60
2019-02-05T09:27:59.354Z,35.97
2019-02-05T09:30:33.540Z,40.23
2019-02-05T09:33:14.355Z,40.87
2019-02-05T09:35:47.139Z,45.90
2019-02-05T09:38:19.060Z,29.23
2019-02-05T09:40:51.292Z,35.93
2019-02-05T09:43:26.923Z,29.90
2019-02-05T09:46:00.562Z,41.43
2019-02-05T09:48:32.594Z,39.73
2019-02-05T09:51:07.088Z,30.40
2019-02-05T09:53:44.069Z,41.20
2019-02-05T09:56:18.574Z,38.63
2019-02-05T09:58:50.326Z,34.17
2019-02-05T10:01:22.049Z,43.63
2019-02-05T10:03:53.753Z,37.03
2019-02-05T10:06:25.589Z,36.93
2019-02-05T10:08:57.210Z,41.33
2019-02-05T10:11:28.905Z,36.93
2019-02-05T10:14:03.310Z,37.23
2019-02-05T10:16:37.131Z,36.07
2019-02-05T10:19:08.758Z,38.20
2019-02-05T10:21:40.320Z,44.43
2019-02-05T10:24:11.890Z,23.43
2019-02-05T10:26:43.508Z,35.70
2019-02-05T10:29:15.078Z,45.67
2019-02-05T10:31:46.616Z,32.97
2019-02-05T10:34:33.579Z,34.20
2019-02-05T10:36:56.682Z,36.07
2019-02-05T10:39:28.438Z,32.87
2019-02-05T10:41:59.948Z,29.20
2019-02-05T10:44:31.855Z,35.43
2019-02-05T10:47:03.747Z,32.63
2019-02-05T10:49:35.339Z,39.47
2019-02-05T10:52:07.040Z,27.60
2019-02-05T10:54:39.115Z,29.83
2019-02-05T10:57:10.755Z,29.00
2019-02-05T10:59:42.446Z,32.47
2019-02-05T11:02:15.276Z,32.87
2019-02-05T11:04:46.849Z,40.00
2019-02-05T11:07:18.335Z,29.03
2019-02-05T11:09:49.889Z,31.63
2019-02-05T11:12:21.373Z,30.10
2019-02-05T11:14:53.955Z,26.17
2019-02-05T11:17:25.471Z,32.83
2019-02-05T11:19:58.313Z,25.80
2019-02-05T11:22:29.822Z,24.73
2019-02-05T11:25:01.421Z,20.83
2019-02-05T11:27:35.140Z,27.63
2019-02-05T11:30:20.014Z,33.20
2019-02-05T11:32:45.437Z,34.27
2019-02-05T11:35:17.458Z,29.87
2019-02-05T11:37:50.542Z,29.40
2019-02-05T11:40:28.027Z,29.27
2019-02-05T11:42:59.562Z,27.50
2019-02-05T11:45:32.249Z,30.30
2019-02-05T11:48:06.822Z,24.70
2019-02-05T11:50:40.859Z,31.03
2019-02-05T11:53:12.668Z,24.17
2019-02-05T11:55:45.450Z,24.70
2019-02-05T11:58:18.150Z,26.00
2019-02-05T12:01:10.706Z,25.13
2019-02-05T12:03:42.427Z,37.43
2019-02-05T12:06:14.203Z,47.47
2019-02-05T12:08:45.912Z,30.57
2019-02-05T12:11:17.585Z,31.77
2019-02-05T12:13:49.697Z,36.87
2019-02-05T12:16:21.484Z,25.97
2019-02-05T12:18:53.485Z,32.23
2019-02-05T12:21:25.913Z,31.43
2019-02-05T12:24:01.861Z,26.90
2019-02-05T12:27:10.771Z,25.27
2019-02-05T12:29:42.869Z,28.90
2019-02-05T12:33:14.171Z,34.40
2019-02-05T12:36:18.900Z,27.03
2019-02-05T12:38:53.230Z,30.00
2019-02-05T12:41:25.444Z,35.30
2019-02-05T12:43:59.732Z,27.23
2019-02-05T12:46:51.194Z,26.90
2019-02-05T12:49:23.131Z,26.87
2019-02-05T12:51:58.584Z,40.77
2019-02-05T12:54:32.582Z,31.53
2019-02-05T12:57:04.243Z,33.37
2019-02-05T12:59:35.921Z,29.83
2019-02-05T13:02:07.657Z,38.43
2019-02-05T13:04:39.293Z,29.53
2019-02-05T13:07:10.850Z,31.73
2019-02-05T13:09:42.412Z,32.67
2019-02-05T13:12:26.425Z,31.20
2019-02-05T13:14:59.805Z,23.00
2019-02-05T13:17:36.694Z,41.47
2019-02-05T13:20:13.626Z,32.90
2019-02-05T13:22:45.327Z,26.30
2019-02-05T13:25:22.563Z,29.77
2019-02-05T13:27:58.615Z,28.90
2019-02-05T13:30:32.425Z,26.67
2019-02-05T13:33:05.957Z,30.37
2019-02-05T13:35:38.585Z,29.00
2019-02-05T13:38:10.310Z,28.67
2019-02-05T13:40:41.945Z,35.40
2019-02-05T13:43:16.701Z,40.80
2019-02-05T13:45:49.871Z,34.27
2019-02-05T13:48:23.790Z,23.27
2019-02-05T13:51:21.615Z,36.90
2019-02-05T13:53:53.234Z,27.87
2019-02-05T13:56:24.904Z,39.07
2019-02-05T13:58:56.436Z,32.70
2019-02-05T14:01:28.032Z,23.30
2019-02-05T14:03:59.650Z,35.23
2019-02-05T14:06:53.250Z,25.67
2019-02-05T14:12:14.931Z,40.40
2019-02-05T14:15:07.978Z,26.30
2019-02-05T14:18:31.713Z,33.73
2019-02-05T14:21:07.882Z,28.57
2019-02-05T14:34:34.308Z,28.10
2019-02-05T14:37:46.984Z,26.37
2019-02-05T14:40:20.682Z,20.73
2019-02-05T14:42:53.216Z,31.03
2019-02-05T14:45:25.649Z,27.30
2019-02-05T14:47:57.810Z,24.50
2019-02-05T14:50:31.874Z,27.53
2019-02-05T14:53:04.853Z,31.13
2019-02-05T14:55:36.748Z,24.20
2019-02-05T14:58:11.252Z,46.80
2019-02-05T15:00:43.194Z,30.37
2019-02-05T15:03:16.432Z,24.97
2019-02-05T15:05:49.022Z,25.33
2019-02-05T15:08:21.150Z,28.43
2019-02-05T15:10:52.829Z,22.37
2019-02-05T15:13:24.276Z,28.60
2019-02-05T15:15:55.861Z,29.90
2019-02-05T15:18:27.637Z,35.10
2019-02-05T15:20:59.265Z,27.03
2019-02-05T15:23:30.974Z,26.63
2019-02-05T15:26:02.786Z,32.70
2019-02-05T15:28:37.649Z,29.53
2019-02-05T15:31:09.371Z,27.87
2019-02-05T15:33:54.305Z,26.43
2019-02-05T15:36:31.255Z,28.60
2019-02-05T15:39:02.170Z,37.80
2019-02-05T15:41:47.084Z,25.87
2019-02-05T15:44:21.346Z,27.00
2019-02-05T15:46:53.211Z,22.70
2019-02-05T15:49:27.064Z,26.53
2019-02-05T15:51:58.368Z,25.20
2019-02-05T15:54:29.978Z,31.43
2019-02-05T15:57:01.621Z,23.80
2019-02-05T15:59:39.456Z,30.53
2019-02-05T16:02:11.276Z,24.07
2019-02-05T16:04:42.914Z,24.87
2019-02-05T16:07:14.819Z,29.50
2019-02-05T16:09:46.451Z,23.67
2019-02-05T16:12:18.068Z,30.87
2019-02-05T16:14:49.874Z,28.13
2019-02-05T16:17:21.716Z,25.07
2019-02-05T16:19:57.402Z,25.40
2019-02-05T16:22:35.757Z,32.07
2019-02-05T16:25:10.102Z,23.43
2019-02-05T16:27:41.800Z,26.40
2019-02-05T16:30:19.341Z,31.20
2019-02-05T16:32:50.926Z,25.57
2019-02-05T16:35:22.560Z,29.50
2019-02-05T16:37:55.076Z,27.77
2019-02-05T16:40:28.578Z,25.93
2019-02-05T16:43:00.207Z,33.20
2019-02-05T16:45:34.495Z,32.37
2019-02-05T16:48:06.673Z,25.40
2019-02-05T16:50:43.788Z,30.50
2019-02-05T16:53:15.707Z,30.70
2019-02-05T16:55:57.347Z,33.00
2019-02-05T16:58:30.912Z,33.97
2019-02-05T17:01:04.584Z,28.43
2019-02-05T17:03:36.407Z,33.30
2019-02-05T17:06:10.157Z,31.60
2019-02-05T17:08:44.082Z,40.47
2019-02-05T17:11:18.120Z,32.63
2019-02-05T17:13:50.087Z,28.40
2019-02-05T17:16:21.696Z,31.70
2019-02-05T17:18:53.490Z,34.13
2019-02-05T17:21:24.974Z,35.60
2019-02-05T17:23:56.590Z,32.53
2019-02-05T17:26:28.181Z,46.43
2019-02-05T17:28:59.734Z,36.80
2019-02-05T17:31:34.397Z,41.57
2019-02-05T17:34:06.589Z,35.90
2019-02-05T17:36:46.812Z,38.33
2019-02-05T17:39:21.163Z,36.50
2019-02-05T17:42:07.760Z,31.17
2019-02-05T17:44:41.373Z,40.23
2019-02-05T17:47:18.742Z,40.87
2019-02-05T17:49:54.929Z,34.53
2019-02-05T17:52:26.429Z,43.53
2019-02-05T17:55:00.849Z,37.37
2019-02-05T17:57:33.474Z,44.83
2019-02-05T18:00:12.547Z,42.53
2019-02-05T18:02:51.413Z,36.90
2019-02-05T18:05:18.621Z,55.33
2019-02-05T18:07:50.271Z,43.60
2019-02-05T18:10:25.204Z,37.77
2019-02-05T18:12:57.192Z,44.20
2019-02-05T18:15:32.856Z,43.30
2019-02-05T18:18:05.400Z,45.43
2019-02-05T18:20:48.421Z,43.73
2019-02-05T18:23:20.065Z,49.97
2019-02-05T18:25:51.788Z,51.93
2019-02-05T18:28:23.504Z,49.97
2019-02-05T18:30:55.577Z,43.10
2019-02-05T18:33:27.149Z,49.40
2019-02-05T18:35:58.713Z,47.00
2019-02-05T18:38:30.283Z,49.47
2019-02-05T18:41:01.796Z,48.93
2019-02-05T18:43:33.705Z,50.80
2019-02-05T18:46:05.290Z,57.00
2019-02-05T18:48:37.133Z,57.90
2019-02-05T18:51:08.669Z,52.07
2019-02-05T18:53:40.371Z,50.90
2019-02-05T18:56:12.027Z,55.70
2019-02-05T18:58:43.578Z,52.83
2019-02-05T19:01:15.239Z,55.83
2019-02-05T19:03:46.928Z,50.73
2019-02-05T19:06:18.721Z,53.53
2019-02-05T19:08:50.853Z,55.07
2019-02-05T19:11:23.110Z,59.57
2019-02-05T19:13:54.807Z,53.00
2019-02-05T19:16:26.506Z,51.53
2019-02-05T19:18:58.373Z,59.87
2019-02-05T19:21:30.011Z,54.77
2019-02-05T19:24:17.279Z,61.27
2019-02-05T19:26:52.026Z,64.90
2019-02-05T19:29:25.174Z,53.00
2019-02-05T19:31:57.284Z,55.77
2019-02-05T19:34:28.990Z,67.90
2019-02-05T19:37:00.696Z,59.93
2019-02-05T19:39:32.810Z,61.83
2019-02-05T19:42:04.700Z,56.57
2019-02-05T19:44:38.066Z,55.30
2019-02-05T19:47:19.175Z,64.30
2019-02-05T19:49:54.159Z,54.87
2019-02-05T19:52:27.754Z,74.40
2019-02-05T19:54:59.824Z,56.63
2019-02-05T19:57:31.620Z,59.43
2019-02-05T20:00:05.317Z,61.00
2019-02-05T20:02:38.481Z,67.17
2019-02-05T20:05:11.224Z,72.57
2019-02-05T20:07:44.441Z,61.13
2019-02-05T20:10:16.780Z,69.93
2019-02-05T20:12:48.703Z,58.60
2019-02-05T20:15:20.017Z,65.63
2019-02-05T20:17:52.120Z,72.87
2019-02-05T20:20:23.729Z,61.00
2019-02-05T20:22:55.605Z,61.17
2019-02-05T20:25:27.450Z,56.03
2019-02-05T20:27:59.204Z,63.83
2019-02-05T20:30:31.954Z,72.63
2019-02-05T20:33:03.902Z,56.23
2019-02-05T20:35:46.245Z,64.37
2019-02-05T20:38:19.315Z,63.43
2019-02-05T20:40:51.218Z,63.73
2019-02-05T20:43:22.915Z,63.07
2019-02-05T20:45:54.528Z,54.03
2019-02-05T20:48:26.209Z,66.73
2019-02-05T20:51:00.707Z,65.73
2019-02-05T20:53:31.177Z,58.83
2019-02-05T20:56:05.296Z,62.80
2019-02-05T20:58:37.157Z,63.57
2019-02-05T21:01:09.274Z,73.33
2019-02-05T21:03:42.855Z,63.10
2019-02-05T21:06:14.855Z,66.27
2019-02-05T21:08:46.729Z,61.03
2019-02-05T21:11:18.377Z,64.53
2019-02-05T21:13:50.562Z,66.00
2019-02-05T21:16:22.244Z,64.70
2019-02-05T21:18:53.904Z,52.83
2019-02-05T21:21:25.717Z,60.90
2019-02-05T21:23:57.669Z,62.87
2019-02-05T21:26:29.609Z,60.30
2019-02-05T21:29:01.227Z,57.77
2019-02-05T21:31:32.837Z,63.57
2019-02-05T21:34:15.474Z,62.67
2019-02-05T21:36:38.317Z,64.77
2019-02-05T21:39:13.125Z,58.20
2019-02-05T21:41:44.905Z,62.67
2019-02-05T21:44:16.858Z,67.33
2019-02-05T21:46:48.756Z,61.70
2019-02-05T21:49:20.638Z,63.43
2019-02-05T21:51:52.796Z,61.93
2019-02-05T21:54:28.253Z,55.00
2019-02-05T21:56:59.938Z,61.20
2019-02-05T21:59:31.552Z,76.10
2019-02-05T22:02:03.294Z,58.87
2019-02-05T22:04:35.471Z,57.90
2019-02-05T22:07:07.272Z,65.73
2019-02-05T22:09:38.965Z,55.23
2019-02-05T22:12:10.652Z,57.93
2019-02-05T22:14:42.313Z,62.67
2019-02-05T22:17:18.245Z,61.17
2019-02-05T22:19:50.531Z,61.00
2019-02-05T22:22:41.266Z,60.77
2019-02-05T22:25:21.020Z,58.07
2019-02-05T22:27:54.350Z,64.47
2019-02-05T22:30:29.627Z,59.37
2019-02-05T22:33:02.414Z,58.87
2019-02-05T22:35:34.069Z,61.47
2019-02-05T22:38:06.662Z,53.47
2019-02-05T22:40:38.170Z,60.70
2019-02-05T22:43:10.310Z,64.47
2019-02-05T22:45:41.786Z,60.63
2019-02-05T22:48:13.279Z,57.77
2019-02-05T22:50:44.853Z,58.13
2019-02-05T22:53:16.365Z,59.17
2019-02-05T22:55:47.896Z,65.63
2019-02-05T22:58:19.431Z,72.43
2019-02-05T23:01:51.620Z,68.57
2019-02-05T23:05:28.413Z,69.10
2019-02-05T23:08:00.233Z,60.73
2019-02-05T23:11:16.612Z,66.60
2019-02-05T23:13:48.159Z,65.43
2019-02-05T23:16:19.648Z,60.80
2019-02-05T23:18:51.293Z,64.83
2019-02-05T23:21:22.742Z,72.10
2019-02-05T23:23:54.490Z,64.87
2019-02-05T23:26:27.639Z,62.40
2019-02-05T23:28:59.388Z,59.10
2019-02-05T23:31:31.037Z,59.03
2019-02-05T23:34:02.703Z,63.17
2019-02-05T23:36:34.413Z,71.93
2019-02-05T23:39:07.700Z,59.80
2019-02-05T23:41:40.795Z,53.40
2019-02-05T23:44:13.827Z,57.13
2019-02-05T23:46:45.386Z,55.00
2019-02-05T23:49:17.046Z,56.53
2019-02-05T23:51:48.700Z,62.67
2019-02-05T23:54:20.376Z,53.37
2019-02-05T23:56:51.945Z,68.03
2019-02-05T23:59:23.527Z,63.53
